sensor_id;sensor_type;location;lat;lon;timestamp;P1;durP1;ratioP1;P2;durP2;ratioP2
54123;SDS011;55741;53.252;5.788;2022-07-01T00:01:39;3.78;;;1.40;;
54123;SDS011;55741;53.252;5.788;2022-07-01T00:04:07;5.80;;;1.55;;
54123;SDS011;55741;53.252;5.788;2022-07-01T00:06:34;4.78;;;1.52;;
54123;SDS011;55741;53.252;5.788;2022-07-01T00:09:00;6.05;;;1.42;;
54123;SDS011;55741;53.252;5.788;2022-07-01T00:11:26;6.85;;;1.58;;
54123;SDS011;55741;53.252;5.788;2022-07-01T00:13:52;6.53;;;1.48;;
54123;SDS011;55741;53.252;5.788;2022-07-01T00:16:19;9.27;;;2.17;;
54123;SDS011;55741;53.252;5.788;2022-07-01T00:18:48;5.95;;;1.60;;
54123;SDS011;55741;53.252;5.788;2022-07-01T00:21:13;4.43;;;1.30;;
54123;SDS011;55741;53.252;5.788;2022-07-01T00:23:40;4.15;;;1.58;;
54123;SDS011;55741;53.252;5.788;2022-07-01T00:26:06;3.42;;;1.65;;
54123;SDS011;55741;53.252;5.788;2022-07-01T00:28:32;3.95;;;1.67;;
54123;SDS011;55741;53.252;5.788;2022-07-01T00:30:58;6.28;;;1.80;;
54123;SDS011;55741;53.252;5.788;2022-07-01T00:33:24;5.35;;;1.77;;
54123;SDS011;55741;53.252;5.788;2022-07-01T00:35:52;3.50;;;1.63;;
54123;SDS011;55741;53.252;5.788;2022-07-01T00:38:18;4.13;;;1.60;;
54123;SDS011;55741;53.252;5.788;2022-07-01T00:40:44;2.42;;;1.42;;
54123;SDS011;55741;53.252;5.788;2022-07-01T00:43:10;4.32;;;1.80;;
54123;SDS011;55741;53.252;5.788;2022-07-01T00:45:42;3.53;;;1.70;;
54123;SDS011;55741;53.252;5.788;2022-07-01T00:48:09;3.00;;;1.40;;
54123;SDS011;55741;53.252;5.788;2022-07-01T00:50:35;2.25;;;1.50;;
54123;SDS011;55741;53.252;5.788;2022-07-01T00:53:01;3.20;;;1.65;;
54123;SDS011;55741;53.252;5.788;2022-07-01T00:55:28;5.65;;;1.60;;
54123;SDS011;55741;53.252;5.788;2022-07-01T00:57:54;3.47;;;1.60;;
54123;SDS011;55741;53.252;5.788;2022-07-01T01:00:20;3.33;;;1.55;;
54123;SDS011;55741;53.252;5.788;2022-07-01T01:02:49;4.80;;;1.70;;
54123;SDS011;55741;53.252;5.788;2022-07-01T01:05:17;3.67;;;1.67;;
54123;SDS011;55741;53.252;5.788;2022-07-01T01:07:43;4.28;;;1.98;;
54123;SDS011;55741;53.252;5.788;2022-07-01T01:10:09;4.45;;;1.65;;
54123;SDS011;55741;53.252;5.788;2022-07-01T01:12:35;4.60;;;1.60;;
54123;SDS011;55741;53.252;5.788;2022-07-01T01:15:01;3.88;;;1.85;;
54123;SDS011;55741;53.252;5.788;2022-07-01T01:17:27;8.50;;;2.55;;
54123;SDS011;55741;53.252;5.788;2022-07-01T01:19:53;5.90;;;2.67;;
54123;SDS011;55741;53.252;5.788;2022-07-01T01:22:19;5.00;;;2.58;;
54123;SDS011;55741;53.252;5.788;2022-07-01T01:24:46;6.28;;;2.80;;
54123;SDS011;55741;53.252;5.788;2022-07-01T01:27:15;4.85;;;2.33;;
54123;SDS011;55741;53.252;5.788;2022-07-01T01:29:42;5.88;;;2.53;;
54123;SDS011;55741;53.252;5.788;2022-07-01T01:32:09;5.28;;;2.80;;
54123;SDS011;55741;53.252;5.788;2022-07-01T01:34:36;7.20;;;2.70;;
54123;SDS011;55741;53.252;5.788;2022-07-01T01:37:04;3.55;;;2.58;;
54123;SDS011;55741;53.252;5.788;2022-07-01T01:39:30;5.65;;;2.72;;
54123;SDS011;55741;53.252;5.788;2022-07-01T01:41:57;5.78;;;2.83;;
54123;SDS011;55741;53.252;5.788;2022-07-01T01:44:23;5.70;;;2.78;;
54123;SDS011;55741;53.252;5.788;2022-07-01T01:46:48;6.25;;;2.78;;
54123;SDS011;55741;53.252;5.788;2022-07-01T01:49:14;6.25;;;3.20;;
54123;SDS011;55741;53.252;5.788;2022-07-01T01:51:40;3.95;;;2.75;;
54123;SDS011;55741;53.252;5.788;2022-07-01T01:54:06;7.15;;;2.97;;
54123;SDS011;55741;53.252;5.788;2022-07-01T01:56:34;5.68;;;2.92;;
54123;SDS011;55741;53.252;5.788;2022-07-01T01:58:59;6.03;;;3.10;;
54123;SDS011;55741;53.252;5.788;2022-07-01T02:01:26;5.35;;;3.00;;
54123;SDS011;55741;53.252;5.788;2022-07-01T02:03:52;5.72;;;3.58;;
54123;SDS011;55741;53.252;5.788;2022-07-01T02:06:19;6.70;;;3.28;;
54123;SDS011;55741;53.252;5.788;2022-07-01T02:08:45;8.07;;;2.80;;
54123;SDS011;55741;53.252;5.788;2022-07-01T02:11:11;5.05;;;3.00;;
54123;SDS011;55741;53.252;5.788;2022-07-01T02:13:37;5.15;;;3.00;;
54123;SDS011;55741;53.252;5.788;2022-07-01T02:16:04;5.25;;;3.00;;
54123;SDS011;55741;53.252;5.788;2022-07-01T02:18:30;4.65;;;2.70;;
54123;SDS011;55741;53.252;5.788;2022-07-01T02:20:58;5.22;;;2.53;;
54123;SDS011;55741;53.252;5.788;2022-07-01T02:23:24;4.95;;;2.33;;
54123;SDS011;55741;53.252;5.788;2022-07-01T02:25:50;3.65;;;2.20;;
54123;SDS011;55741;53.252;5.788;2022-07-01T02:28:17;5.68;;;2.00;;
54123;SDS011;55741;53.252;5.788;2022-07-01T02:30:43;4.75;;;1.90;;
54123;SDS011;55741;53.252;5.788;2022-07-01T02:33:09;3.08;;;1.85;;
54123;SDS011;55741;53.252;5.788;2022-07-01T02:35:36;4.35;;;1.88;;
54123;SDS011;55741;53.252;5.788;2022-07-01T02:38:04;4.93;;;1.80;;
54123;SDS011;55741;53.252;5.788;2022-07-01T02:40:30;3.90;;;1.55;;
54123;SDS011;55741;53.252;5.788;2022-07-01T02:42:58;7.30;;;1.90;;
54123;SDS011;55741;53.252;5.788;2022-07-01T02:45:24;5.45;;;1.88;;
54123;SDS011;55741;53.252;5.788;2022-07-01T02:47:50;3.88;;;1.73;;
54123;SDS011;55741;53.252;5.788;2022-07-01T02:50:17;5.55;;;1.95;;
54123;SDS011;55741;53.252;5.788;2022-07-01T02:52:45;3.45;;;1.90;;
54123;SDS011;55741;53.252;5.788;2022-07-01T02:55:13;4.47;;;1.60;;
54123;SDS011;55741;53.252;5.788;2022-07-01T02:57:41;5.70;;;1.83;;
54123;SDS011;55741;53.252;5.788;2022-07-01T03:00:09;6.20;;;2.65;;
54123;SDS011;55741;53.252;5.788;2022-07-01T03:02:37;4.97;;;2.08;;
54123;SDS011;55741;53.252;5.788;2022-07-01T03:05:03;4.43;;;2.05;;
54123;SDS011;55741;53.252;5.788;2022-07-01T03:07:29;5.53;;;2.50;;
54123;SDS011;55741;53.252;5.788;2022-07-01T03:09:56;3.30;;;2.17;;
54123;SDS011;55741;53.252;5.788;2022-07-01T03:12:22;4.40;;;2.45;;
54123;SDS011;55741;53.252;5.788;2022-07-01T03:14:51;4.53;;;2.47;;
54123;SDS011;55741;53.252;5.788;2022-07-01T03:17:21;5.57;;;3.00;;
54123;SDS011;55741;53.252;5.788;2022-07-01T03:19:52;5.25;;;2.78;;
54123;SDS011;55741;53.252;5.788;2022-07-01T03:22:21;4.80;;;2.95;;
54123;SDS011;55741;53.252;5.788;2022-07-01T03:24:49;6.63;;;3.20;;
54123;SDS011;55741;53.252;5.788;2022-07-01T03:27:17;5.15;;;3.10;;
54123;SDS011;55741;53.252;5.788;2022-07-01T03:29:44;8.40;;;3.95;;
54123;SDS011;55741;53.252;5.788;2022-07-01T03:32:10;7.45;;;4.40;;
54123;SDS011;55741;53.252;5.788;2022-07-01T03:34:37;9.63;;;4.43;;
54123;SDS011;55741;53.252;5.788;2022-07-01T03:37:08;9.32;;;4.60;;
54123;SDS011;55741;53.252;5.788;2022-07-01T03:39:36;7.60;;;5.22;;
54123;SDS011;55741;53.252;5.788;2022-07-01T03:42:03;8.93;;;5.13;;
54123;SDS011;55741;53.252;5.788;2022-07-01T03:44:29;8.32;;;5.18;;
54123;SDS011;55741;53.252;5.788;2022-07-01T03:46:55;6.72;;;5.40;;
54123;SDS011;55741;53.252;5.788;2022-07-01T03:49:22;6.25;;;5.38;;
54123;SDS011;55741;53.252;5.788;2022-07-01T03:51:48;8.95;;;5.60;;
54123;SDS011;55741;53.252;5.788;2022-07-01T03:54:14;14.18;;;5.78;;
54123;SDS011;55741;53.252;5.788;2022-07-01T03:59:24;8.68;;;5.60;;
54123;SDS011;55741;53.252;5.788;2022-07-01T04:01:52;9.25;;;4.90;;
54123;SDS011;55741;53.252;5.788;2022-07-01T04:04:21;9.05;;;5.05;;
54123;SDS011;55741;53.252;5.788;2022-07-01T04:06:47;10.30;;;4.93;;
54123;SDS011;55741;53.252;5.788;2022-07-01T04:09:15;11.15;;;4.60;;
54123;SDS011;55741;53.252;5.788;2022-07-01T04:11:42;12.20;;;5.68;;
54123;SDS011;55741;53.252;5.788;2022-07-01T04:14:09;9.35;;;4.35;;
54123;SDS011;55741;53.252;5.788;2022-07-01T04:16:36;9.48;;;4.68;;
54123;SDS011;55741;53.252;5.788;2022-07-01T04:19:02;10.23;;;4.28;;
54123;SDS011;55741;53.252;5.788;2022-07-01T04:21:28;8.55;;;3.67;;
54123;SDS011;55741;53.252;5.788;2022-07-01T04:24:13;8.43;;;3.58;;
54123;SDS011;55741;53.252;5.788;2022-07-01T04:26:39;11.13;;;3.10;;
54123;SDS011;55741;53.252;5.788;2022-07-01T04:29:06;11.15;;;3.03;;
54123;SDS011;55741;53.252;5.788;2022-07-01T04:31:36;9.25;;;2.88;;
54123;SDS011;55741;53.252;5.788;2022-07-01T04:34:07;9.02;;;2.85;;
54123;SDS011;55741;53.252;5.788;2022-07-01T04:36:33;12.10;;;2.83;;
54123;SDS011;55741;53.252;5.788;2022-07-01T04:39:00;7.40;;;2.70;;
54123;SDS011;55741;53.252;5.788;2022-07-01T04:41:27;7.13;;;2.55;;
54123;SDS011;55741;53.252;5.788;2022-07-01T04:44:11;9.70;;;2.42;;
54123;SDS011;55741;53.252;5.788;2022-07-01T04:46:37;9.60;;;2.90;;
54123;SDS011;55741;53.252;5.788;2022-07-01T04:49:03;10.07;;;2.72;;
54123;SDS011;55741;53.252;5.788;2022-07-01T04:51:29;11.02;;;3.20;;
54123;SDS011;55741;53.252;5.788;2022-07-01T04:53:56;6.68;;;2.53;;
54123;SDS011;55741;53.252;5.788;2022-07-01T04:56:22;10.20;;;2.47;;
54123;SDS011;55741;53.252;5.788;2022-07-01T04:58:48;12.63;;;3.05;;
54123;SDS011;55741;53.252;5.788;2022-07-01T05:01:15;9.25;;;2.38;;
54123;SDS011;55741;53.252;5.788;2022-07-01T05:03:44;14.57;;;3.20;;
54123;SDS011;55741;53.252;5.788;2022-07-01T05:06:09;9.55;;;2.83;;
54123;SDS011;55741;53.252;5.788;2022-07-01T05:08:40;8.77;;;3.13;;
54123;SDS011;55741;53.252;5.788;2022-07-01T05:11:06;12.05;;;3.10;;
54123;SDS011;55741;53.252;5.788;2022-07-01T05:13:32;8.90;;;2.75;;
54123;SDS011;55741;53.252;5.788;2022-07-01T05:15:59;8.77;;;2.60;;
54123;SDS011;55741;53.252;5.788;2022-07-01T05:18:26;14.13;;;2.88;;
54123;SDS011;55741;53.252;5.788;2022-07-01T05:21:11;8.30;;;2.40;;
54123;SDS011;55741;53.252;5.788;2022-07-01T05:23:55;11.15;;;2.55;;
54123;SDS011;55741;53.252;5.788;2022-07-01T05:26:26;8.20;;;2.92;;
54123;SDS011;55741;53.252;5.788;2022-07-01T05:28:52;12.77;;;2.90;;
54123;SDS011;55741;53.252;5.788;2022-07-01T05:31:19;12.18;;;3.15;;
54123;SDS011;55741;53.252;5.788;2022-07-01T05:33:46;7.90;;;2.72;;
54123;SDS011;55741;53.252;5.788;2022-07-01T05:36:12;8.95;;;2.75;;
54123;SDS011;55741;53.252;5.788;2022-07-01T05:38:38;10.07;;;3.20;;
54123;SDS011;55741;53.252;5.788;2022-07-01T05:41:04;9.82;;;3.40;;
54123;SDS011;55741;53.252;5.788;2022-07-01T05:43:31;8.02;;;3.20;;
54123;SDS011;55741;53.252;5.788;2022-07-01T05:45:57;11.48;;;3.92;;
54123;SDS011;55741;53.252;5.788;2022-07-01T05:48:22;11.23;;;3.83;;
54123;SDS011;55741;53.252;5.788;2022-07-01T05:50:49;12.25;;;4.38;;
54123;SDS011;55741;53.252;5.788;2022-07-01T05:53:15;13.68;;;3.28;;
54123;SDS011;55741;53.252;5.788;2022-07-01T05:55:41;9.40;;;3.35;;
54123;SDS011;55741;53.252;5.788;2022-07-01T05:58:07;14.10;;;4.20;;
54123;SDS011;55741;53.252;5.788;2022-07-01T06:00:36;9.75;;;3.65;;
54123;SDS011;55741;53.252;5.788;2022-07-01T06:03:05;16.13;;;4.30;;
54123;SDS011;55741;53.252;5.788;2022-07-01T06:05:31;12.60;;;4.63;;
54123;SDS011;55741;53.252;5.788;2022-07-01T06:07:57;10.25;;;4.72;;
54123;SDS011;55741;53.252;5.788;2022-07-01T06:10:22;14.70;;;5.30;;
54123;SDS011;55741;53.252;5.788;2022-07-01T06:12:48;9.27;;;4.15;;
54123;SDS011;55741;53.252;5.788;2022-07-01T06:15:14;14.88;;;5.68;;
54123;SDS011;55741;53.252;5.788;2022-07-01T06:17:41;14.80;;;5.57;;
54123;SDS011;55741;53.252;5.788;2022-07-01T06:20:07;15.15;;;5.60;;
54123;SDS011;55741;53.252;5.788;2022-07-01T06:22:34;11.27;;;5.45;;
54123;SDS011;55741;53.252;5.788;2022-07-01T06:25:00;12.70;;;6.22;;
54123;SDS011;55741;53.252;5.788;2022-07-01T06:27:27;18.27;;;6.85;;
54123;SDS011;55741;53.252;5.788;2022-07-01T06:29:53;13.95;;;6.57;;
54123;SDS011;55741;53.252;5.788;2022-07-01T06:32:19;22.02;;;7.00;;
54123;SDS011;55741;53.252;5.788;2022-07-01T06:34:45;12.98;;;6.07;;
54123;SDS011;55741;53.252;5.788;2022-07-01T06:37:11;16.85;;;7.35;;
54123;SDS011;55741;53.252;5.788;2022-07-01T06:39:37;19.73;;;7.97;;
54123;SDS011;55741;53.252;5.788;2022-07-01T06:42:03;14.32;;;6.75;;
54123;SDS011;55741;53.252;5.788;2022-07-01T06:44:29;15.48;;;7.30;;
54123;SDS011;55741;53.252;5.788;2022-07-01T06:46:55;18.02;;;8.38;;
54123;SDS011;55741;53.252;5.788;2022-07-01T06:49:21;15.70;;;7.25;;
54123;SDS011;55741;53.252;5.788;2022-07-01T06:51:47;17.63;;;7.32;;
54123;SDS011;55741;53.252;5.788;2022-07-01T06:54:13;11.65;;;5.93;;
54123;SDS011;55741;53.252;5.788;2022-07-01T06:56:39;13.88;;;6.60;;
54123;SDS011;55741;53.252;5.788;2022-07-01T06:59:05;14.45;;;7.25;;
54123;SDS011;55741;53.252;5.788;2022-07-01T07:01:31;18.80;;;6.47;;
54123;SDS011;55741;53.252;5.788;2022-07-01T07:03:58;16.17;;;5.95;;
54123;SDS011;55741;53.252;5.788;2022-07-01T07:06:24;15.75;;;5.50;;
54123;SDS011;55741;53.252;5.788;2022-07-01T07:08:49;14.50;;;5.03;;
54123;SDS011;55741;53.252;5.788;2022-07-01T07:11:15;16.73;;;5.80;;
54123;SDS011;55741;53.252;5.788;2022-07-01T07:13:41;16.90;;;4.93;;
54123;SDS011;55741;53.252;5.788;2022-07-01T07:16:08;13.25;;;4.82;;
54123;SDS011;55741;53.252;5.788;2022-07-01T07:18:33;13.95;;;4.63;;
54123;SDS011;55741;53.252;5.788;2022-07-01T07:21:00;15.57;;;4.65;;
54123;SDS011;55741;53.252;5.788;2022-07-01T07:23:26;17.20;;;4.28;;
54123;SDS011;55741;53.252;5.788;2022-07-01T07:25:51;15.45;;;4.68;;
54123;SDS011;55741;53.252;5.788;2022-07-01T07:28:17;14.48;;;3.58;;
54123;SDS011;55741;53.252;5.788;2022-07-01T07:30:43;11.63;;;3.42;;
54123;SDS011;55741;53.252;5.788;2022-07-01T07:33:09;13.95;;;3.97;;
54123;SDS011;55741;53.252;5.788;2022-07-01T07:35:35;10.52;;;2.85;;
54123;SDS011;55741;53.252;5.788;2022-07-01T07:38:01;9.60;;;2.67;;
54123;SDS011;55741;53.252;5.788;2022-07-01T07:40:27;12.35;;;3.15;;
54123;SDS011;55741;53.252;5.788;2022-07-01T07:42:53;12.70;;;3.50;;
54123;SDS011;55741;53.252;5.788;2022-07-01T07:45:19;11.73;;;2.80;;
54123;SDS011;55741;53.252;5.788;2022-07-01T07:47:45;11.25;;;3.22;;
54123;SDS011;55741;53.252;5.788;2022-07-01T07:50:13;8.73;;;2.70;;
54123;SDS011;55741;53.252;5.788;2022-07-01T07:52:39;8.68;;;2.80;;
54123;SDS011;55741;53.252;5.788;2022-07-01T07:55:06;10.23;;;2.90;;
54123;SDS011;55741;53.252;5.788;2022-07-01T07:57:37;10.85;;;3.30;;
54123;SDS011;55741;53.252;5.788;2022-07-01T08:00:05;10.30;;;2.95;;
54123;SDS011;55741;53.252;5.788;2022-07-01T08:02:32;11.75;;;2.83;;
54123;SDS011;55741;53.252;5.788;2022-07-01T08:05:00;10.27;;;2.92;;
54123;SDS011;55741;53.252;5.788;2022-07-01T08:07:26;8.60;;;2.55;;
54123;SDS011;55741;53.252;5.788;2022-07-01T08:09:52;7.68;;;2.22;;
54123;SDS011;55741;53.252;5.788;2022-07-01T08:12:18;15.52;;;2.78;;
54123;SDS011;55741;53.252;5.788;2022-07-01T08:14:43;8.27;;;2.00;;
54123;SDS011;55741;53.252;5.788;2022-07-01T08:17:09;12.25;;;2.30;;
54123;SDS011;55741;53.252;5.788;2022-07-01T08:19:35;10.60;;;2.65;;
54123;SDS011;55741;53.252;5.788;2022-07-01T08:22:01;8.48;;;2.67;;
54123;SDS011;55741;53.252;5.788;2022-07-01T08:24:27;9.45;;;2.20;;
54123;SDS011;55741;53.252;5.788;2022-07-01T08:26:53;7.85;;;2.15;;
54123;SDS011;55741;53.252;5.788;2022-07-01T08:29:19;9.15;;;2.00;;
54123;SDS011;55741;53.252;5.788;2022-07-01T08:31:45;7.85;;;2.08;;
54123;SDS011;55741;53.252;5.788;2022-07-01T08:34:11;9.15;;;2.47;;
54123;SDS011;55741;53.252;5.788;2022-07-01T08:36:37;10.32;;;2.63;;
54123;SDS011;55741;53.252;5.788;2022-07-01T08:39:07;10.25;;;3.20;;
54123;SDS011;55741;53.252;5.788;2022-07-01T08:41:33;6.57;;;1.73;;
54123;SDS011;55741;53.252;5.788;2022-07-01T08:43:59;8.98;;;3.10;;
54123;SDS011;55741;53.252;5.788;2022-07-01T08:46:26;11.63;;;2.45;;
54123;SDS011;55741;53.252;5.788;2022-07-01T08:48:52;10.20;;;2.65;;
54123;SDS011;55741;53.252;5.788;2022-07-01T08:51:19;11.13;;;2.38;;
54123;SDS011;55741;53.252;5.788;2022-07-01T08:53:44;8.68;;;2.40;;
54123;SDS011;55741;53.252;5.788;2022-07-01T08:56:10;8.52;;;2.13;;
54123;SDS011;55741;53.252;5.788;2022-07-01T08:58:55;11.50;;;2.78;;
54123;SDS011;55741;53.252;5.788;2022-07-01T09:01:22;6.93;;;2.15;;
54123;SDS011;55741;53.252;5.788;2022-07-01T09:03:55;5.88;;;1.95;;
54123;SDS011;55741;53.252;5.788;2022-07-01T09:06:27;7.47;;;2.28;;
54123;SDS011;55741;53.252;5.788;2022-07-01T09:08:54;7.95;;;2.17;;
54123;SDS011;55741;53.252;5.788;2022-07-01T09:11:34;8.27;;;1.85;;
54123;SDS011;55741;53.252;5.788;2022-07-01T09:14:10;6.07;;;1.63;;
54123;SDS011;55741;53.252;5.788;2022-07-01T09:19:17;7.15;;;1.88;;
54123;SDS011;55741;53.252;5.788;2022-07-01T09:21:48;4.80;;;1.42;;
54123;SDS011;55741;53.252;5.788;2022-07-01T09:27:02;8.93;;;2.58;;
54123;SDS011;55741;53.252;5.788;2022-07-01T09:29:37;6.65;;;2.58;;
54123;SDS011;55741;53.252;5.788;2022-07-01T09:32:05;5.15;;;1.48;;
54123;SDS011;55741;53.252;5.788;2022-07-01T09:34:33;5.35;;;1.38;;
54123;SDS011;55741;53.252;5.788;2022-07-01T09:37:01;5.00;;;1.80;;
54123;SDS011;55741;53.252;5.788;2022-07-01T09:39:28;6.68;;;1.67;;
54123;SDS011;55741;53.252;5.788;2022-07-01T09:41:54;5.22;;;1.60;;
54123;SDS011;55741;53.252;5.788;2022-07-01T09:44:21;10.15;;;2.15;;
54123;SDS011;55741;53.252;5.788;2022-07-01T09:46:56;7.32;;;1.77;;
54123;SDS011;55741;53.252;5.788;2022-07-01T09:49:23;6.65;;;1.60;;
54123;SDS011;55741;53.252;5.788;2022-07-01T09:51:50;5.75;;;1.30;;
54123;SDS011;55741;53.252;5.788;2022-07-01T09:54:17;7.90;;;2.05;;
54123;SDS011;55741;53.252;5.788;2022-07-01T09:56:43;5.00;;;1.50;;
54123;SDS011;55741;53.252;5.788;2022-07-01T09:59:09;5.80;;;1.65;;
54123;SDS011;55741;53.252;5.788;2022-07-01T10:01:36;3.22;;;1.15;;
54123;SDS011;55741;53.252;5.788;2022-07-01T10:04:04;6.38;;;1.67;;
54123;SDS011;55741;53.252;5.788;2022-07-01T10:09:31;5.30;;;1.85;;
54123;SDS011;55741;53.252;5.788;2022-07-01T10:15:01;6.55;;;1.52;;
54123;SDS011;55741;53.252;5.788;2022-07-01T10:18:10;5.72;;;1.50;;
54123;SDS011;55741;53.252;5.788;2022-07-01T10:20:25;5.72;;;1.50;;
54123;SDS011;55741;53.252;5.788;2022-07-01T10:23:05;7.43;;;2.00;;
54123;SDS011;55741;53.252;5.788;2022-07-01T10:25:42;3.83;;;1.48;;
54123;SDS011;55741;53.252;5.788;2022-07-01T10:31:02;5.82;;;1.80;;
54123;SDS011;55741;53.252;5.788;2022-07-01T10:36:30;6.90;;;2.13;;
54123;SDS011;55741;53.252;5.788;2022-07-01T10:41:33;4.97;;;1.65;;
54123;SDS011;55741;53.252;5.788;2022-07-01T10:44:05;8.30;;;1.80;;
54123;SDS011;55741;53.252;5.788;2022-07-01T10:46:45;6.07;;;1.85;;
54123;SDS011;55741;53.252;5.788;2022-07-01T10:52:08;5.30;;;1.60;;
54123;SDS011;55741;53.252;5.788;2022-07-01T11:02:24;5.22;;;1.85;;
54123;SDS011;55741;53.252;5.788;2022-07-01T11:07:31;4.80;;;1.23;;
54123;SDS011;55741;53.252;5.788;2022-07-01T11:09:59;4.38;;;1.67;;
54123;SDS011;55741;53.252;5.788;2022-07-01T11:12:29;5.80;;;1.40;;
54123;SDS011;55741;53.252;5.788;2022-07-01T11:14:56;7.20;;;1.45;;
54123;SDS011;55741;53.252;5.788;2022-07-01T11:17:24;8.90;;;1.42;;
54123;SDS011;55741;53.252;5.788;2022-07-01T11:19:52;5.18;;;1.63;;
54123;SDS011;55741;53.252;5.788;2022-07-01T11:22:20;5.15;;;1.80;;
54123;SDS011;55741;53.252;5.788;2022-07-01T11:24:54;5.03;;;1.55;;
54123;SDS011;55741;53.252;5.788;2022-07-01T11:27:21;5.35;;;1.42;;
54123;SDS011;55741;53.252;5.788;2022-07-01T11:29:54;6.80;;;1.67;;
54123;SDS011;55741;53.252;5.788;2022-07-01T11:32:32;8.98;;;1.67;;
54123;SDS011;55741;53.252;5.788;2022-07-01T11:35:03;7.15;;;1.73;;
54123;SDS011;55741;53.252;5.788;2022-07-01T11:43:30;3.22;;;1.33;;
54123;SDS011;55741;53.252;5.788;2022-07-01T11:46:00;6.22;;;1.50;;
54123;SDS011;55741;53.252;5.788;2022-07-01T11:48:31;7.43;;;1.65;;
54123;SDS011;55741;53.252;5.788;2022-07-01T11:51:05;3.85;;;1.15;;
54123;SDS011;55741;53.252;5.788;2022-07-01T11:53:43;5.40;;;1.40;;
54123;SDS011;55741;53.252;5.788;2022-07-01T11:56:10;8.70;;;2.03;;
54123;SDS011;55741;53.252;5.788;2022-07-01T11:58:55;8.25;;;1.50;;
54123;SDS011;55741;53.252;5.788;2022-07-01T12:03:53;3.63;;;1.23;;
54123;SDS011;55741;53.252;5.788;2022-07-01T12:06:20;4.43;;;1.88;;
54123;SDS011;55741;53.252;5.788;2022-07-01T12:08:50;3.40;;;1.10;;
54123;SDS011;55741;53.252;5.788;2022-07-01T12:11:19;6.85;;;1.75;;
54123;SDS011;55741;53.252;5.788;2022-07-01T12:13:47;12.55;;;1.98;;
54123;SDS011;55741;53.252;5.788;2022-07-01T12:16:14;3.80;;;1.40;;
54123;SDS011;55741;53.252;5.788;2022-07-01T12:18:50;4.95;;;1.48;;
54123;SDS011;55741;53.252;5.788;2022-07-01T12:21:27;6.35;;;1.65;;
54123;SDS011;55741;53.252;5.788;2022-07-01T12:29:24;6.85;;;1.48;;
54123;SDS011;55741;53.252;5.788;2022-07-01T12:37:15;6.40;;;1.77;;
54123;SDS011;55741;53.252;5.788;2022-07-01T12:39:47;5.80;;;1.70;;
54123;SDS011;55741;53.252;5.788;2022-07-01T12:42:21;6.20;;;1.95;;
54123;SDS011;55741;53.252;5.788;2022-07-01T12:44:47;6.93;;;1.60;;
54123;SDS011;55741;53.252;5.788;2022-07-01T12:52:59;5.65;;;1.95;;
54123;SDS011;55741;53.252;5.788;2022-07-01T12:55:36;7.55;;;2.63;;
54123;SDS011;55741;53.252;5.788;2022-07-01T12:58:16;6.70;;;1.80;;
54123;SDS011;55741;53.252;5.788;2022-07-01T13:03:22;9.07;;;2.33;;
54123;SDS011;55741;53.252;5.788;2022-07-01T13:05:50;7.13;;;1.80;;
54123;SDS011;55741;53.252;5.788;2022-07-01T13:08:18;5.60;;;1.60;;
54123;SDS011;55741;53.252;5.788;2022-07-01T13:10:46;8.85;;;1.88;;
54123;SDS011;55741;53.252;5.788;2022-07-01T13:13:13;8.18;;;1.75;;
54123;SDS011;55741;53.252;5.788;2022-07-01T13:15:42;9.73;;;2.40;;
54123;SDS011;55741;53.252;5.788;2022-07-01T13:18:09;8.95;;;1.80;;
54123;SDS011;55741;53.252;5.788;2022-07-01T13:20:36;9.65;;;2.25;;
54123;SDS011;55741;53.252;5.788;2022-07-01T13:23:03;6.72;;;2.20;;
54123;SDS011;55741;53.252;5.788;2022-07-01T13:25:29;6.28;;;1.80;;
54123;SDS011;55741;53.252;5.788;2022-07-01T13:27:56;9.48;;;2.25;;
54123;SDS011;55741;53.252;5.788;2022-07-01T13:30:23;8.30;;;2.50;;
54123;SDS011;55741;53.252;5.788;2022-07-01T13:32:49;7.55;;;1.83;;
54123;SDS011;55741;53.252;5.788;2022-07-01T13:35:17;8.18;;;2.15;;
54123;SDS011;55741;53.252;5.788;2022-07-01T13:37:43;7.95;;;2.00;;
54123;SDS011;55741;53.252;5.788;2022-07-01T13:40:09;6.82;;;1.90;;
54123;SDS011;55741;53.252;5.788;2022-07-01T13:42:36;6.30;;;2.00;;
54123;SDS011;55741;53.252;5.788;2022-07-01T13:45:02;8.65;;;2.22;;
54123;SDS011;55741;53.252;5.788;2022-07-01T13:47:31;5.63;;;1.67;;
54123;SDS011;55741;53.252;5.788;2022-07-01T13:49:57;9.68;;;2.20;;
54123;SDS011;55741;53.252;5.788;2022-07-01T13:52:23;7.70;;;1.95;;
54123;SDS011;55741;53.252;5.788;2022-07-01T13:54:49;7.45;;;1.83;;
54123;SDS011;55741;53.252;5.788;2022-07-01T13:57:15;5.72;;;1.88;;
54123;SDS011;55741;53.252;5.788;2022-07-01T13:59:41;6.30;;;1.50;;
54123;SDS011;55741;53.252;5.788;2022-07-01T14:02:07;6.10;;;1.85;;
54123;SDS011;55741;53.252;5.788;2022-07-01T14:04:34;7.72;;;1.92;;
54123;SDS011;55741;53.252;5.788;2022-07-01T14:07:00;4.32;;;1.60;;
54123;SDS011;55741;53.252;5.788;2022-07-01T14:09:26;5.43;;;1.90;;
54123;SDS011;55741;53.252;5.788;2022-07-01T14:11:53;6.88;;;1.90;;
54123;SDS011;55741;53.252;5.788;2022-07-01T14:14:19;8.57;;;1.65;;
54123;SDS011;55741;53.252;5.788;2022-07-01T14:16:45;7.57;;;1.90;;
54123;SDS011;55741;53.252;5.788;2022-07-01T14:19:10;7.28;;;1.80;;
54123;SDS011;55741;53.252;5.788;2022-07-01T14:21:36;6.22;;;1.77;;
54123;SDS011;55741;53.252;5.788;2022-07-01T14:24:03;8.68;;;1.90;;
54123;SDS011;55741;53.252;5.788;2022-07-01T14:26:30;3.85;;;1.38;;
54123;SDS011;55741;53.252;5.788;2022-07-01T14:28:55;5.97;;;1.65;;
54123;SDS011;55741;53.252;5.788;2022-07-01T14:31:21;6.78;;;2.00;;
54123;SDS011;55741;53.252;5.788;2022-07-01T14:33:47;5.85;;;1.90;;
54123;SDS011;55741;53.252;5.788;2022-07-01T14:36:13;7.03;;;2.00;;
54123;SDS011;55741;53.252;5.788;2022-07-01T14:38:39;6.60;;;1.80;;
54123;SDS011;55741;53.252;5.788;2022-07-01T14:41:05;4.82;;;1.52;;
54123;SDS011;55741;53.252;5.788;2022-07-01T14:43:31;8.40;;;1.95;;
54123;SDS011;55741;53.252;5.788;2022-07-01T14:45:57;7.70;;;1.63;;
54123;SDS011;55741;53.252;5.788;2022-07-01T14:48:23;5.68;;;1.92;;
54123;SDS011;55741;53.252;5.788;2022-07-01T14:50:49;4.35;;;1.80;;
54123;SDS011;55741;53.252;5.788;2022-07-01T14:53:15;6.15;;;1.80;;
54123;SDS011;55741;53.252;5.788;2022-07-01T14:55:41;9.23;;;1.70;;
54123;SDS011;55741;53.252;5.788;2022-07-01T14:58:06;7.32;;;1.88;;
54123;SDS011;55741;53.252;5.788;2022-07-01T15:00:33;8.23;;;1.75;;
54123;SDS011;55741;53.252;5.788;2022-07-01T15:03:02;8.50;;;1.75;;
54123;SDS011;55741;53.252;5.788;2022-07-01T15:05:29;8.38;;;1.88;;
54123;SDS011;55741;53.252;5.788;2022-07-01T15:07:55;8.45;;;1.70;;
54123;SDS011;55741;53.252;5.788;2022-07-01T15:10:21;7.22;;;1.48;;
54123;SDS011;55741;53.252;5.788;2022-07-01T15:12:49;5.28;;;1.40;;
54123;SDS011;55741;53.252;5.788;2022-07-01T15:15:16;2.63;;;1.10;;
54123;SDS011;55741;53.252;5.788;2022-07-01T15:17:42;5.30;;;1.60;;
54123;SDS011;55741;53.252;5.788;2022-07-01T15:20:10;5.13;;;1.67;;
54123;SDS011;55741;53.252;5.788;2022-07-01T15:22:36;5.50;;;1.20;;
54123;SDS011;55741;53.252;5.788;2022-07-01T15:25:02;5.75;;;1.73;;
54123;SDS011;55741;53.252;5.788;2022-07-01T15:27:28;4.55;;;1.98;;
54123;SDS011;55741;53.252;5.788;2022-07-01T15:29:54;5.43;;;1.33;;
54123;SDS011;55741;53.252;5.788;2022-07-01T15:32:20;5.97;;;1.50;;
54123;SDS011;55741;53.252;5.788;2022-07-01T15:34:46;6.03;;;1.60;;
54123;SDS011;55741;53.252;5.788;2022-07-01T15:37:12;5.07;;;1.50;;
54123;SDS011;55741;53.252;5.788;2022-07-01T15:39:38;7.63;;;1.90;;
54123;SDS011;55741;53.252;5.788;2022-07-01T15:42:04;4.88;;;1.63;;
54123;SDS011;55741;53.252;5.788;2022-07-01T15:44:33;6.68;;;1.60;;
54123;SDS011;55741;53.252;5.788;2022-07-01T15:46:59;4.50;;;1.42;;
54123;SDS011;55741;53.252;5.788;2022-07-01T15:49:48;5.82;;;1.75;;
54123;SDS011;55741;53.252;5.788;2022-07-01T15:52:13;5.65;;;1.48;;